EJU187 EGKK-EHAM
Flight info
| Callsign | EJU187 |
|---|---|
| Flight time | 0h 38m |
| Altitude | 29000 |
| Route | FRANE M604 GASBA M197 REDFA |
| Aircraft | A20N/M-SDE2E3FGHIRWXY/LB1 |
Departure
| Time | 2026-05-04 17:39 |
|---|---|
| Airport | London Gatwick Airport (EGKK) |
Arrival
| Time | 2026-05-04 18:17 |
|---|---|
| Airport | Amsterdam Airport Schiphol (EHAM) |
| Time | Latitude | Longitude | Altitude | Speed | Heading |
|---|---|---|---|---|---|
| 2026-05-04 16:48 | 51.15582 | -0.17682 | 196 ft | 0 kts | 347° |
| 2026-05-04 17:17 | 51.15574 | -0.17680 | 196 ft | 2 kts | 347° |
| 2026-05-04 17:18 | 51.15564 | -0.17676 | 196 ft | 1 kts | 347° |
| 2026-05-04 17:18 | 51.15539 | -0.17654 | 196 ft | 2 kts | 312° |
| 2026-05-04 17:19 | 51.15526 | -0.17612 | 195 ft | 2 kts | 277° |
| 2026-05-04 17:19 | 51.15527 | -0.17579 | 194 ft | 1 kts | 256° |
| 2026-05-04 17:20 | 51.15527 | -0.17577 | 194 ft | 0 kts | 257° |
| 2026-05-04 17:23 | 51.15528 | -0.17577 | 194 ft | 0 kts | 257° |
| 2026-05-04 17:23 | 51.15526 | -0.17589 | 195 ft | 2 kts | 258° |
| 2026-05-04 17:23 | 51.15512 | -0.17687 | 196 ft | 7 kts | 258° |
| 2026-05-04 17:24 | 51.15498 | -0.17784 | 194 ft | 9 kts | 257° |
| 2026-05-04 17:24 | 51.15453 | -0.18119 | 193 ft | 10 kts | 258° |
| 2026-05-04 17:25 | 51.15438 | -0.18231 | 193 ft | 6 kts | 258° |
| 2026-05-04 17:25 | 51.15386 | -0.18277 | 193 ft | 6 kts | 173° |
| 2026-05-04 17:26 | 51.15241 | -0.18228 | 193 ft | 12 kts | 167° |
| 2026-05-04 17:26 | 51.15155 | -0.18521 | 196 ft | 13 kts | 259° |
| 2026-05-04 17:27 | 51.15113 | -0.18836 | 196 ft | 15 kts | 258° |
| 2026-05-04 17:27 | 51.15065 | -0.19180 | 195 ft | 16 kts | 257° |
| 2026-05-04 17:28 | 51.15021 | -0.19514 | 193 ft | 15 kts | 259° |
| 2026-05-04 17:29 | 51.14953 | -0.19996 | 196 ft | 14 kts | 257° |
| 2026-05-04 17:29 | 51.14887 | -0.20486 | 197 ft | 16 kts | 258° |
| 2026-05-04 17:30 | 51.14811 | -0.21035 | 199 ft | 16 kts | 256° |
| 2026-05-04 17:31 | 51.14768 | -0.21285 | 200 ft | 9 kts | 259° |
| 2026-05-04 17:31 | 51.14693 | -0.21402 | 202 ft | 0 kts | 165° |
| 2026-05-04 17:33 | 51.14637 | -0.21332 | 202 ft | 5 kts | 168° |
| 2026-05-04 17:33 | 51.14627 | -0.21328 | 202 ft | 0 kts | 168° |
| 2026-05-04 17:37 | 51.14622 | -0.21326 | 202 ft | 2 kts | 168° |
| 2026-05-04 17:38 | 51.14571 | -0.21306 | 202 ft | 10 kts | 158° |
| 2026-05-04 17:38 | 51.14523 | -0.21206 | 200 ft | 13 kts | 105° |
| 2026-05-04 17:38 | 51.14543 | -0.20986 | 198 ft | 44 kts | 78° |
| 2026-05-04 17:38 | 51.14666 | -0.20100 | 196 ft | 118 kts | 77° |
| 2026-05-04 17:39 | 51.15128 | -0.16850 | 1148 ft | 156 kts | 76° |
| 2026-05-04 17:39 | 51.15360 | -0.15165 | 1743 ft | 166 kts | 76° |
| 2026-05-04 17:39 | 51.15621 | -0.13276 | 2242 ft | 182 kts | 76° |
| 2026-05-04 17:40 | 51.15905 | -0.11243 | 2739 ft | 199 kts | 76° |
| 2026-05-04 17:40 | 51.16223 | -0.08953 | 3152 ft | 224 kts | 76° |
| 2026-05-04 17:40 | 51.16570 | -0.06445 | 3708 ft | 243 kts | 77° |
| 2026-05-04 17:40 | 51.16831 | -0.03703 | 4337 ft | 259 kts | 84° |
| 2026-05-04 17:41 | 51.16876 | -0.00813 | 5179 ft | 266 kts | 90° |
| 2026-05-04 17:41 | 51.16827 | 0.02116 | 6054 ft | 271 kts | 91° |
| 2026-05-04 17:41 | 51.16764 | 0.05117 | 6929 ft | 275 kts | 91° |
| 2026-05-04 17:41 | 51.16701 | 0.08146 | 7813 ft | 279 kts | 91° |
| 2026-05-04 17:42 | 51.16639 | 0.11232 | 8684 ft | 282 kts | 91° |
| 2026-05-04 17:42 | 51.16579 | 0.14352 | 9535 ft | 285 kts | 91° |
| 2026-05-04 17:42 | 51.16546 | 0.17486 | 10362 ft | 288 kts | 89° |
| 2026-05-04 17:42 | 51.16554 | 0.20683 | 11070 ft | 292 kts | 89° |
| 2026-05-04 17:43 | 51.16570 | 0.23904 | 11351 ft | 292 kts | 89° |
| 2026-05-04 17:43 | 51.16582 | 0.27140 | 11586 ft | 292 kts | 89° |
| 2026-05-04 17:43 | 51.16589 | 0.30369 | 11836 ft | 293 kts | 89° |
| 2026-05-04 17:43 | 51.16595 | 0.33600 | 12089 ft | 294 kts | 89° |
| 2026-05-04 17:44 | 51.16598 | 0.36829 | 12370 ft | 296 kts | 89° |
| 2026-05-04 17:44 | 51.16601 | 0.40145 | 12971 ft | 303 kts | 89° |
| 2026-05-04 17:44 | 51.16601 | 0.43477 | 13828 ft | 303 kts | 89° |
| 2026-05-04 17:44 | 51.16602 | 0.46832 | 14626 ft | 305 kts | 89° |
| 2026-05-04 17:45 | 51.16755 | 0.50164 | 15320 ft | 309 kts | 75° |
| 2026-05-04 17:45 | 51.17704 | 0.53222 | 16005 ft | 313 kts | 50° |
| 2026-05-04 17:45 | 51.19373 | 0.55443 | 16673 ft | 318 kts | 27° |
| 2026-05-04 17:45 | 51.21475 | 0.56546 | 17331 ft | 323 kts | 13° |
| 2026-05-04 17:46 | 51.23655 | 0.57303 | 17972 ft | 328 kts | 12° |
| 2026-05-04 17:46 | 51.25899 | 0.58083 | 18593 ft | 333 kts | 13° |
| 2026-05-04 17:46 | 51.28168 | 0.58900 | 19214 ft | 337 kts | 13° |
| 2026-05-04 17:46 | 51.30466 | 0.59747 | 19835 ft | 341 kts | 13° |
| 2026-05-04 17:47 | 51.32764 | 0.60605 | 20426 ft | 346 kts | 13° |
| 2026-05-04 17:47 | 51.35131 | 0.61492 | 21017 ft | 350 kts | 13° |
| 2026-05-04 17:47 | 51.37494 | 0.62378 | 21600 ft | 354 kts | 12° |
| 2026-05-04 17:47 | 51.39903 | 0.63284 | 22114 ft | 360 kts | 12° |
| 2026-05-04 17:48 | 51.42358 | 0.64211 | 22369 ft | 373 kts | 12° |
| 2026-05-04 17:48 | 51.44941 | 0.65189 | 22616 ft | 386 kts | 13° |
| 2026-05-04 17:48 | 51.47593 | 0.66194 | 22853 ft | 399 kts | 13° |
| 2026-05-04 17:48 | 51.50321 | 0.67231 | 23140 ft | 409 kts | 13° |
| 2026-05-04 17:49 | 51.53090 | 0.68287 | 23715 ft | 411 kts | 12° |
| 2026-05-04 17:49 | 51.55853 | 0.69342 | 24450 ft | 408 kts | 12° |
| 2026-05-04 17:49 | 51.58592 | 0.70384 | 25178 ft | 406 kts | 12° |
| 2026-05-04 17:49 | 51.61317 | 0.71416 | 25838 ft | 404 kts | 12° |
| 2026-05-04 17:50 | 51.64020 | 0.72442 | 26465 ft | 403 kts | 12° |
| 2026-05-04 17:50 | 51.66746 | 0.73482 | 27092 ft | 402 kts | 12° |
| 2026-05-04 17:50 | 51.69453 | 0.74514 | 27676 ft | 401 kts | 12° |
| 2026-05-04 17:50 | 51.72139 | 0.75540 | 28157 ft | 403 kts | 13° |
| 2026-05-04 17:51 | 51.74782 | 0.76986 | 28552 ft | 407 kts | 29° |
| 2026-05-04 17:51 | 51.76948 | 0.79858 | 28924 ft | 408 kts | 51° |
| 2026-05-04 17:51 | 51.78426 | 0.83775 | 29001 ft | 408 kts | 70° |
| 2026-05-04 17:51 | 51.79202 | 0.88217 | 29021 ft | 418 kts | 78° |
| 2026-05-04 17:52 | 51.80073 | 0.92760 | 29016 ft | 432 kts | 71° |
| 2026-05-04 17:52 | 51.81190 | 0.97309 | 29008 ft | 442 kts | 69° |
| 2026-05-04 17:52 | 51.83579 | 1.06470 | 29005 ft | 446 kts | 68° |
| 2026-05-04 17:53 | 51.85978 | 1.15768 | 29006 ft | 460 kts | 68° |
| 2026-05-04 17:53 | 51.88463 | 1.25531 | 29004 ft | 476 kts | 69° |
| 2026-05-04 17:54 | 51.90954 | 1.35388 | 29007 ft | 477 kts | 69° |
| 2026-05-04 17:54 | 51.93450 | 1.45321 | 29009 ft | 477 kts | 69° |
| 2026-05-04 17:55 | 51.95934 | 1.55255 | 29011 ft | 477 kts | 69° |
| 2026-05-04 17:55 | 51.98371 | 1.65179 | 29009 ft | 476 kts | 71° |
| 2026-05-04 17:56 | 52.00303 | 1.75379 | 29010 ft | 475 kts | 77° |
| 2026-05-04 17:56 | 52.01910 | 1.85732 | 28752 ft | 476 kts | 78° |
| 2026-05-04 17:57 | 52.02703 | 1.90915 | 28479 ft | 476 kts | 77° |
| 2026-05-04 17:57 | 52.03505 | 1.96159 | 28203 ft | 478 kts | 77° |
| 2026-05-04 17:57 | 52.04299 | 2.01349 | 27932 ft | 479 kts | 77° |
| 2026-05-04 17:57 | 52.05101 | 2.06596 | 27661 ft | 480 kts | 77° |
| 2026-05-04 17:58 | 52.05904 | 2.11856 | 27351 ft | 481 kts | 77° |
| 2026-05-04 17:58 | 52.06704 | 2.17117 | 26678 ft | 483 kts | 77° |
| 2026-05-04 17:58 | 52.07497 | 2.22352 | 25824 ft | 484 kts | 77° |
| 2026-05-04 17:58 | 52.08299 | 2.27667 | 25249 ft | 486 kts | 77° |
| 2026-05-04 17:59 | 52.09103 | 2.33011 | 24670 ft | 488 kts | 76° |
| 2026-05-04 17:59 | 52.09903 | 2.38344 | 24070 ft | 489 kts | 76° |
| 2026-05-04 17:59 | 52.11831 | 2.48875 | 22882 ft | 491 kts | 67° |
| 2026-05-04 18:00 | 52.13309 | 2.53903 | 22640 ft | 489 kts | 60° |
| 2026-05-04 18:00 | 52.14976 | 2.58640 | 22613 ft | 486 kts | 58° |
| 2026-05-04 18:00 | 52.16684 | 2.63330 | 22584 ft | 486 kts | 58° |
| 2026-05-04 18:00 | 52.18373 | 2.68077 | 22558 ft | 485 kts | 62° |
| 2026-05-04 18:01 | 52.19805 | 2.72991 | 22363 ft | 475 kts | 66° |
| 2026-05-04 18:01 | 52.21104 | 2.77886 | 21694 ft | 470 kts | 67° |
| 2026-05-04 18:01 | 52.22369 | 2.82745 | 21131 ft | 462 kts | 67° |
| 2026-05-04 18:02 | 52.24844 | 2.92129 | 20156 ft | 443 kts | 66° |
| 2026-05-04 18:02 | 52.26054 | 2.96649 | 19704 ft | 434 kts | 66° |
| 2026-05-04 18:02 | 52.27263 | 3.01149 | 19252 ft | 429 kts | 66° |
| 2026-05-04 18:02 | 52.28453 | 3.05572 | 18810 ft | 426 kts | 66° |
| 2026-05-04 18:03 | 52.29627 | 3.09934 | 18370 ft | 423 kts | 66° |
| 2026-05-04 18:03 | 52.30798 | 3.14292 | 17946 ft | 421 kts | 66° |
| 2026-05-04 18:03 | 52.31969 | 3.18656 | 17494 ft | 419 kts | 66° |
| 2026-05-04 18:03 | 52.33122 | 3.22957 | 16892 ft | 416 kts | 66° |
| 2026-05-04 18:04 | 52.34278 | 3.27275 | 15991 ft | 419 kts | 66° |
| 2026-05-04 18:04 | 52.35450 | 3.31664 | 15258 ft | 417 kts | 65° |
| 2026-05-04 18:04 | 52.37726 | 3.40205 | 13999 ft | 408 kts | 65° |
| 2026-05-04 18:05 | 52.38848 | 3.44430 | 13366 ft | 405 kts | 65° |
| 2026-05-04 18:05 | 52.39963 | 3.48630 | 12733 ft | 401 kts | 65° |
| 2026-05-04 18:05 | 52.41058 | 3.52765 | 12115 ft | 397 kts | 65° |
| 2026-05-04 18:05 | 52.42149 | 3.56894 | 11473 ft | 394 kts | 65° |
| 2026-05-04 18:06 | 52.42847 | 3.65419 | 10439 ft | 380 kts | 107° |
| 2026-05-04 18:06 | 52.41859 | 3.69355 | 10217 ft | 365 kts | 115° |
| 2026-05-04 18:06 | 52.40826 | 3.73088 | 9990 ft | 353 kts | 115° |
| 2026-05-04 18:07 | 52.39865 | 3.76658 | 9773 ft | 341 kts | 114° |
| 2026-05-04 18:07 | 52.38948 | 3.80177 | 9557 ft | 329 kts | 113° |
| 2026-05-04 18:07 | 52.38090 | 3.83548 | 9357 ft | 319 kts | 112° |
| 2026-05-04 18:07 | 52.37263 | 3.86838 | 9189 ft | 307 kts | 112° |
| 2026-05-04 18:08 | 52.36473 | 3.90005 | 9060 ft | 294 kts | 112° |
| 2026-05-04 18:08 | 52.35712 | 3.93070 | 8799 ft | 288 kts | 111° |
| 2026-05-04 18:08 | 52.34964 | 3.96092 | 8434 ft | 287 kts | 111° |
| 2026-05-04 18:08 | 52.34225 | 3.99081 | 8056 ft | 286 kts | 111° |
| 2026-05-04 18:09 | 52.32735 | 4.05102 | 7336 ft | 281 kts | 111° |
| 2026-05-04 18:09 | 52.31258 | 4.11051 | 6595 ft | 278 kts | 111° |
| 2026-05-04 18:10 | 52.30528 | 4.13985 | 6231 ft | 276 kts | 111° |
| 2026-05-04 18:10 | 52.29807 | 4.16883 | 5876 ft | 274 kts | 111° |
| 2026-05-04 18:10 | 52.29076 | 4.19807 | 5530 ft | 272 kts | 111° |
| 2026-05-04 18:10 | 52.28327 | 4.22807 | 5155 ft | 270 kts | 110° |
| 2026-05-04 18:11 | 52.27590 | 4.25751 | 4787 ft | 267 kts | 110° |
| 2026-05-04 18:11 | 52.26856 | 4.28680 | 4411 ft | 266 kts | 110° |
| 2026-05-04 18:11 | 52.26124 | 4.31601 | 4042 ft | 265 kts | 110° |
| 2026-05-04 18:11 | 52.25368 | 4.34618 | 3657 ft | 262 kts | 110° |
| 2026-05-04 18:12 | 52.24622 | 4.37587 | 3295 ft | 260 kts | 109° |
| 2026-05-04 18:12 | 52.23891 | 4.40489 | 3014 ft | 254 kts | 109° |
| 2026-05-04 18:12 | 52.23188 | 4.43266 | 2869 ft | 243 kts | 109° |
| 2026-05-04 18:12 | 52.22500 | 4.45979 | 2754 ft | 232 kts | 109° |
| 2026-05-04 18:13 | 52.21857 | 4.48518 | 2658 ft | 220 kts | 109° |
| 2026-05-04 18:13 | 52.21263 | 4.50865 | 2569 ft | 209 kts | 108° |
| 2026-05-04 18:13 | 52.21672 | 4.55241 | 2443 ft | 184 kts | 54° |
| 2026-05-04 18:14 | 52.22406 | 4.56938 | 2355 ft | 173 kts | 52° |
| 2026-05-04 18:14 | 52.23101 | 4.58579 | 2124 ft | 171 kts | 54° |
| 2026-05-04 18:14 | 52.23775 | 4.60282 | 1894 ft | 168 kts | 55° |
| 2026-05-04 18:15 | 52.24955 | 4.63380 | 1479 ft | 148 kts | 55° |
| 2026-05-04 18:15 | 52.26028 | 4.66213 | 1061 ft | 133 kts | 57° |
| 2026-05-04 18:15 | 52.26511 | 4.67474 | 871 ft | 128 kts | 57° |
| 2026-05-04 18:16 | 52.26982 | 4.68724 | 731 ft | 128 kts | 56° |
| 2026-05-04 18:16 | 52.27454 | 4.69974 | 552 ft | 127 kts | 57° |
| 2026-05-04 18:16 | 52.27925 | 4.71182 | 381 ft | 127 kts | 54° |
| 2026-05-04 18:17 | 52.28874 | 4.73630 | 34 ft | 127 kts | 54° |
| 2026-05-04 18:17 | 52.29319 | 4.74787 | 0 ft | 103 kts | 59° |
| 2026-05-04 18:17 | 52.29795 | 4.75816 | -4 ft | 33 kts | 28° |
| 2026-05-04 18:18 | 52.29965 | 4.75961 | -1 ft | 17 kts | 29° |
| 2026-05-04 18:18 | 52.30032 | 4.76094 | 0 ft | 14 kts | 57° |
| 2026-05-04 18:18 | 52.30092 | 4.76240 | -2 ft | 16 kts | 56° |
| 2026-05-04 18:18 | 52.30150 | 4.76395 | -1 ft | 15 kts | 60° |
| 2026-05-04 18:19 | 52.30299 | 4.76796 | -1 ft | 25 kts | 58° |
| 2026-05-04 18:19 | 52.30394 | 4.77036 | 1 ft | 23 kts | 57° |
| 2026-05-04 18:19 | 52.30477 | 4.77251 | 5 ft | 20 kts | 58° |
| 2026-05-04 18:20 | 52.30553 | 4.77450 | 6 ft | 19 kts | 57° |
| 2026-05-04 18:20 | 52.30653 | 4.77586 | 7 ft | 18 kts | 11° |
| 2026-05-04 18:20 | 52.30785 | 4.77602 | 8 ft | 19 kts | 3° |
| 2026-05-04 18:20 | 52.30927 | 4.77615 | 10 ft | 21 kts | 2° |
| 2026-05-04 18:21 | 52.31097 | 4.77628 | 7 ft | 26 kts | 3° |
| 2026-05-04 18:21 | 52.31289 | 4.77648 | 3 ft | 26 kts | 3° |
| 2026-05-04 18:21 | 52.31468 | 4.77625 | 0 ft | 24 kts | 329° |
| 2026-05-04 18:21 | 52.31569 | 4.77435 | 1 ft | 21 kts | 289° |
| 2026-05-04 18:22 | 52.31573 | 4.77199 | 1 ft | 20 kts | 268° |
| 2026-05-04 18:22 | 52.31565 | 4.76945 | 0 ft | 24 kts | 267° |
| 2026-05-04 18:22 | 52.31559 | 4.76650 | -1 ft | 27 kts | 268° |
| 2026-05-04 18:22 | 52.31544 | 4.76328 | -2 ft | 29 kts | 267° |
| 2026-05-04 18:23 | 52.31533 | 4.75996 | -2 ft | 28 kts | 266° |
| 2026-05-04 18:23 | 52.31523 | 4.75696 | 1 ft | 24 kts | 267° |
| 2026-05-04 18:23 | 52.31509 | 4.75458 | 1 ft | 11 kts | 238° |
| 2026-05-04 18:23 | 52.31427 | 4.75437 | 1 ft | 13 kts | 177° |
| 2026-05-04 18:24 | 52.31326 | 4.75447 | 1 ft | 15 kts | 178° |
| 2026-05-04 18:24 | 52.31220 | 4.75461 | 1 ft | 15 kts | 177° |
| 2026-05-04 18:24 | 52.31141 | 4.75495 | 2 ft | 9 kts | 152° |
| 2026-05-04 18:24 | 52.31086 | 4.75549 | 3 ft | 8 kts | 147° |
| 2026-05-04 18:25 | 52.31070 | 4.75565 | 3 ft | 0 kts | 147° |